sensor_id;sensor_type;location;lat;lon;timestamp;temperature;humidity
28175;SHT30;59417;44.788;10.334;2023-07-13T00:00:42;26.76;63.24
28175;SHT30;59417;44.788;10.334;2023-07-13T00:03:08;26.76;62.66
28175;SHT30;59417;44.788;10.334;2023-07-13T00:05:34;26.67;61.97
28175;SHT30;59417;44.788;10.334;2023-07-13T00:08:00;26.65;62.46
28175;SHT30;59417;44.788;10.334;2023-07-13T00:10:26;26.80;61.25
28175;SHT30;59417;44.788;10.334;2023-07-13T00:12:52;26.81;61.36
28175;SHT30;59417;44.788;10.334;2023-07-13T00:15:23;26.88;60.48
28175;SHT30;59417;44.788;10.334;2023-07-13T00:17:50;26.76;59.66
28175;SHT30;59417;44.788;10.334;2023-07-13T00:20:17;26.81;59.87
28175;SHT30;59417;44.788;10.334;2023-07-13T00:22:42;26.63;59.02
28175;SHT30;59417;44.788;10.334;2023-07-13T00:25:10;26.54;59.03
28175;SHT30;59417;44.788;10.334;2023-07-13T00:27:37;26.46;59.97
28175;SHT30;59417;44.788;10.334;2023-07-13T00:30:03;26.65;58.66
28175;SHT30;59417;44.788;10.334;2023-07-13T00:32:30;26.68;58.96
28175;SHT30;59417;44.788;10.334;2023-07-13T00:34:56;26.81;57.95
28175;SHT30;59417;44.788;10.334;2023-07-13T00:37:24;26.97;56.85
28175;SHT30;59417;44.788;10.334;2023-07-13T00:39:50;27.01;56.71
28175;SHT30;59417;44.788;10.334;2023-07-13T00:42:16;26.97;56.48
28175;SHT30;59417;44.788;10.334;2023-07-13T00:45:04;26.98;56.25
28175;SHT30;59417;44.788;10.334;2023-07-13T00:47:31;27.10;55.87
28175;SHT30;59417;44.788;10.334;2023-07-13T00:49:58;27.04;55.91
28175;SHT30;59417;44.788;10.334;2023-07-13T00:52:26;27.04;56.17
28175;SHT30;59417;44.788;10.334;2023-07-13T00:54:54;27.00;56.05
28175;SHT30;59417;44.788;10.334;2023-07-13T00:57:21;27.10;56.07
28175;SHT30;59417;44.788;10.334;2023-07-13T00:59:49;26.95;56.56
28175;SHT30;59417;44.788;10.334;2023-07-13T01:02:17;26.88;56.89
28175;SHT30;59417;44.788;10.334;2023-07-13T01:04:43;26.79;57.52
28175;SHT30;59417;44.788;10.334;2023-07-13T01:07:11;26.88;57.37
28175;SHT30;59417;44.788;10.334;2023-07-13T01:09:40;27.00;57.35
28175;SHT30;59417;44.788;10.334;2023-07-13T01:12:07;26.95;57.46
28175;SHT30;59417;44.788;10.334;2023-07-13T01:14:33;27.12;57.26
28175;SHT30;59417;44.788;10.334;2023-07-13T01:16:59;27.15;57.25
28175;SHT30;59417;44.788;10.334;2023-07-13T01:22:07;27.00;57.63
28175;SHT30;59417;44.788;10.334;2023-07-13T01:24:37;26.98;57.82
28175;SHT30;59417;44.788;10.334;2023-07-13T01:27:07;27.15;56.97
28175;SHT30;59417;44.788;10.334;2023-07-13T01:29:35;26.95;57.54
28175;SHT30;59417;44.788;10.334;2023-07-13T01:32:13;26.81;58.09
28175;SHT30;59417;44.788;10.334;2023-07-13T01:34:41;26.94;58.10
28175;SHT30;59417;44.788;10.334;2023-07-13T01:37:12;26.95;57.92
28175;SHT30;59417;44.788;10.334;2023-07-13T01:39:38;26.97;57.89
28175;SHT30;59417;44.788;10.334;2023-07-13T01:42:05;27.02;57.69
28175;SHT30;59417;44.788;10.334;2023-07-13T01:44:33;27.00;58.24
28175;SHT30;59417;44.788;10.334;2023-07-13T01:47:00;27.00;57.89
28175;SHT30;59417;44.788;10.334;2023-07-13T01:49:26;27.01;57.53
28175;SHT30;59417;44.788;10.334;2023-07-13T01:51:52;27.00;57.86
28175;SHT30;59417;44.788;10.334;2023-07-13T01:54:18;26.90;57.79
28175;SHT30;59417;44.788;10.334;2023-07-13T01:56:44;26.77;58.32
28175;SHT30;59417;44.788;10.334;2023-07-13T01:59:10;26.61;59.15
28175;SHT30;59417;44.788;10.334;2023-07-13T02:01:36;26.84;58.54
28175;SHT30;59417;44.788;10.334;2023-07-13T02:04:02;26.87;57.95
28175;SHT30;59417;44.788;10.334;2023-07-13T02:06:32;26.80;58.13
28175;SHT30;59417;44.788;10.334;2023-07-13T02:08:58;26.83;58.00
28175;SHT30;59417;44.788;10.334;2023-07-13T02:11:24;26.97;57.79
28175;SHT30;59417;44.788;10.334;2023-07-13T02:13:53;27.00;57.51
28175;SHT30;59417;44.788;10.334;2023-07-13T02:16:20;26.92;57.34
28175;SHT30;59417;44.788;10.334;2023-07-13T02:18:46;26.92;57.65
28175;SHT30;59417;44.788;10.334;2023-07-13T02:21:12;26.95;57.60
28175;SHT30;59417;44.788;10.334;2023-07-13T02:23:38;27.02;57.79
28175;SHT30;59417;44.788;10.334;2023-07-13T02:26:04;26.91;58.11
28175;SHT30;59417;44.788;10.334;2023-07-13T02:28:30;26.95;57.61
28175;SHT30;59417;44.788;10.334;2023-07-13T02:31:08;26.98;57.36
28175;SHT30;59417;44.788;10.334;2023-07-13T02:33:34;26.94;57.35
28175;SHT30;59417;44.788;10.334;2023-07-13T02:36:00;26.97;57.41
28175;SHT30;59417;44.788;10.334;2023-07-13T02:38:25;26.90;57.31
28175;SHT30;59417;44.788;10.334;2023-07-13T02:40:51;26.98;57.21
28175;SHT30;59417;44.788;10.334;2023-07-13T02:43:19;27.02;57.40
28175;SHT30;59417;44.788;10.334;2023-07-13T02:45:46;27.01;57.28
28175;SHT30;59417;44.788;10.334;2023-07-13T02:48:14;26.95;58.24
28175;SHT30;59417;44.788;10.334;2023-07-13T02:50:39;26.67;59.08
28175;SHT30;59417;44.788;10.334;2023-07-13T02:53:05;26.61;59.37
28175;SHT30;59417;44.788;10.334;2023-07-13T02:55:31;26.60;59.30
28175;SHT30;59417;44.788;10.334;2023-07-13T02:57:57;26.56;59.21
28175;SHT30;59417;44.788;10.334;2023-07-13T03:00:23;26.67;59.30
28175;SHT30;59417;44.788;10.334;2023-07-13T03:02:49;26.63;58.49
28175;SHT30;59417;44.788;10.334;2023-07-13T03:05:16;26.36;59.60
28175;SHT30;59417;44.788;10.334;2023-07-13T03:07:42;26.36;60.17
28175;SHT30;59417;44.788;10.334;2023-07-13T03:10:10;26.41;59.88
28175;SHT30;59417;44.788;10.334;2023-07-13T03:12:43;26.50;59.90
28175;SHT30;59417;44.788;10.334;2023-07-13T03:15:17;26.49;59.80
28175;SHT30;59417;44.788;10.334;2023-07-13T03:17:46;26.54;59.32
28175;SHT30;59417;44.788;10.334;2023-07-13T03:20:13;26.37;60.38
28175;SHT30;59417;44.788;10.334;2023-07-13T03:22:39;26.25;60.33
28175;SHT30;59417;44.788;10.334;2023-07-13T03:25:05;26.13;60.55
28175;SHT30;59417;44.788;10.334;2023-07-13T03:27:31;26.18;60.56
28175;SHT30;59417;44.788;10.334;2023-07-13T03:29:57;26.30;60.36
28175;SHT30;59417;44.788;10.334;2023-07-13T03:32:23;26.40;59.88
28175;SHT30;59417;44.788;10.334;2023-07-13T03:34:49;26.47;59.53
28175;SHT30;59417;44.788;10.334;2023-07-13T03:37:15;26.50;60.04
28175;SHT30;59417;44.788;10.334;2023-07-13T03:39:41;26.33;60.24
28175;SHT30;59417;44.788;10.334;2023-07-13T03:42:07;26.46;59.95
28175;SHT30;59417;44.788;10.334;2023-07-13T03:44:35;26.50;60.24
28175;SHT30;59417;44.788;10.334;2023-07-13T03:47:02;26.37;60.84
28175;SHT30;59417;44.788;10.334;2023-07-13T03:49:28;26.43;61.13
28175;SHT30;59417;44.788;10.334;2023-07-13T03:51:54;26.16;61.70
28175;SHT30;59417;44.788;10.334;2023-07-13T03:54:20;26.08;61.70
28175;SHT30;59417;44.788;10.334;2023-07-13T03:56:45;26.13;61.45
28175;SHT30;59417;44.788;10.334;2023-07-13T03:59:12;26.30;61.07
28175;SHT30;59417;44.788;10.334;2023-07-13T04:01:37;26.15;61.62
28175;SHT30;59417;44.788;10.334;2023-07-13T04:04:03;26.00;61.84
28175;SHT30;59417;44.788;10.334;2023-07-13T04:06:31;26.23;62.01
28175;SHT30;59417;44.788;10.334;2023-07-13T04:08:58;26.16;61.90
28175;SHT30;59417;44.788;10.334;2023-07-13T04:11:26;25.98;62.67
28175;SHT30;59417;44.788;10.334;2023-07-13T04:13:53;25.96;63.00
28175;SHT30;59417;44.788;10.334;2023-07-13T04:16:19;25.89;62.79
28175;SHT30;59417;44.788;10.334;2023-07-13T04:18:47;26.02;61.68
28175;SHT30;59417;44.788;10.334;2023-07-13T04:21:14;25.92;62.17
28175;SHT30;59417;44.788;10.334;2023-07-13T04:23:40;25.99;62.08
28175;SHT30;59417;44.788;10.334;2023-07-13T04:26:06;26.15;61.80
28175;SHT30;59417;44.788;10.334;2023-07-13T04:28:33;26.23;61.83
28175;SHT30;59417;44.788;10.334;2023-07-13T04:30:59;26.23;61.62
28175;SHT30;59417;44.788;10.334;2023-07-13T04:33:26;26.22;62.30
28175;SHT30;59417;44.788;10.334;2023-07-13T04:35:54;26.28;62.62
28175;SHT30;59417;44.788;10.334;2023-07-13T04:38:26;26.37;62.02
28175;SHT30;59417;44.788;10.334;2023-07-13T04:40:55;26.50;61.48
28175;SHT30;59417;44.788;10.334;2023-07-13T04:43:22;26.60;61.58
28175;SHT30;59417;44.788;10.334;2023-07-13T04:45:48;26.73;60.80
28175;SHT30;59417;44.788;10.334;2023-07-13T04:48:13;26.73;60.86
28175;SHT30;59417;44.788;10.334;2023-07-13T04:50:39;26.49;62.42
28175;SHT30;59417;44.788;10.334;2023-07-13T04:53:05;26.35;61.83
28175;SHT30;59417;44.788;10.334;2023-07-13T04:55:31;26.40;61.81
28175;SHT30;59417;44.788;10.334;2023-07-13T04:57:58;26.39;62.23
28175;SHT30;59417;44.788;10.334;2023-07-13T05:00:26;26.29;62.26
28175;SHT30;59417;44.788;10.334;2023-07-13T05:02:53;26.36;62.76
28175;SHT30;59417;44.788;10.334;2023-07-13T05:05:19;26.41;61.73
28175;SHT30;59417;44.788;10.334;2023-07-13T05:07:44;26.54;60.48
28175;SHT30;59417;44.788;10.334;2023-07-13T05:10:10;26.49;61.17
28175;SHT30;59417;44.788;10.334;2023-07-13T05:12:36;26.35;61.79
28175;SHT30;59417;44.788;10.334;2023-07-13T05:15:02;25.98;62.25
28175;SHT30;59417;44.788;10.334;2023-07-13T05:17:28;26.02;62.06
28175;SHT30;59417;44.788;10.334;2023-07-13T05:19:54;25.69;62.99
28175;SHT30;59417;44.788;10.334;2023-07-13T05:22:21;25.57;63.83
28175;SHT30;59417;44.788;10.334;2023-07-13T05:24:46;25.57;64.03
28175;SHT30;59417;44.788;10.334;2023-07-13T05:27:12;25.44;64.64
28175;SHT30;59417;44.788;10.334;2023-07-13T05:29:38;25.54;64.83
28175;SHT30;59417;44.788;10.334;2023-07-13T05:32:04;25.42;65.01
28175;SHT30;59417;44.788;10.334;2023-07-13T05:34:30;25.51;64.49
28175;SHT30;59417;44.788;10.334;2023-07-13T05:36:55;25.45;64.81
28175;SHT30;59417;44.788;10.334;2023-07-13T05:39:21;25.58;64.86
28175;SHT30;59417;44.788;10.334;2023-07-13T05:41:47;25.67;64.58
28175;SHT30;59417;44.788;10.334;2023-07-13T05:44:12;25.77;64.12
28175;SHT30;59417;44.788;10.334;2023-07-13T05:46:38;25.92;63.95
28175;SHT30;59417;44.788;10.334;2023-07-13T05:49:04;25.90;64.63
28175;SHT30;59417;44.788;10.334;2023-07-13T05:51:29;25.75;64.91
28175;SHT30;59417;44.788;10.334;2023-07-13T05:53:55;25.74;65.18
28175;SHT30;59417;44.788;10.334;2023-07-13T05:56:21;25.67;64.79
28175;SHT30;59417;44.788;10.334;2023-07-13T05:58:48;25.74;65.15
28175;SHT30;59417;44.788;10.334;2023-07-13T06:01:15;25.64;65.17
28175;SHT30;59417;44.788;10.334;2023-07-13T06:03:41;25.69;65.21
28175;SHT30;59417;44.788;10.334;2023-07-13T06:06:09;25.75;65.13
28175;SHT30;59417;44.788;10.334;2023-07-13T06:08:36;25.82;64.40
28175;SHT30;59417;44.788;10.334;2023-07-13T06:13:33;25.98;64.56
28175;SHT30;59417;44.788;10.334;2023-07-13T06:15:59;25.79;64.02
28175;SHT30;59417;44.788;10.334;2023-07-13T06:18:26;25.77;65.19
28175;SHT30;59417;44.788;10.334;2023-07-13T06:20:51;25.93;64.87
28175;SHT30;59417;44.788;10.334;2023-07-13T06:23:17;26.03;64.48
28175;SHT30;59417;44.788;10.334;2023-07-13T06:25:43;25.89;63.98
28175;SHT30;59417;44.788;10.334;2023-07-13T06:28:09;25.75;65.33
28175;SHT30;59417;44.788;10.334;2023-07-13T06:30:34;25.82;65.03
28175;SHT30;59417;44.788;10.334;2023-07-13T06:33:00;25.81;65.54
28175;SHT30;59417;44.788;10.334;2023-07-13T06:35:26;25.93;64.83
28175;SHT30;59417;44.788;10.334;2023-07-13T06:37:51;26.02;63.96
28175;SHT30;59417;44.788;10.334;2023-07-13T06:40:17;26.12;63.45
28175;SHT30;59417;44.788;10.334;2023-07-13T06:42:42;26.22;62.76
28175;SHT30;59417;44.788;10.334;2023-07-13T06:45:08;26.23;63.33
28175;SHT30;59417;44.788;10.334;2023-07-13T06:47:34;26.06;63.72
28175;SHT30;59417;44.788;10.334;2023-07-13T06:50:00;25.92;64.95
28175;SHT30;59417;44.788;10.334;2023-07-13T06:52:26;25.69;65.03
28175;SHT30;59417;44.788;10.334;2023-07-13T06:54:52;25.55;65.22
28175;SHT30;59417;44.788;10.334;2023-07-13T06:57:17;25.42;65.75
28175;SHT30;59417;44.788;10.334;2023-07-13T06:59:43;25.28;66.41
28175;SHT30;59417;44.788;10.334;2023-07-13T07:02:10;25.34;66.57
28175;SHT30;59417;44.788;10.334;2023-07-13T07:04:37;25.41;66.64
28175;SHT30;59417;44.788;10.334;2023-07-13T07:07:02;25.42;66.23
28175;SHT30;59417;44.788;10.334;2023-07-13T07:09:28;25.53;66.02
28175;SHT30;59417;44.788;10.334;2023-07-13T07:11:57;25.55;65.60
28175;SHT30;59417;44.788;10.334;2023-07-13T07:14:23;25.72;65.74
28175;SHT30;59417;44.788;10.334;2023-07-13T07:16:49;25.55;65.94
28175;SHT30;59417;44.788;10.334;2023-07-13T07:19:15;25.51;66.02
28175;SHT30;59417;44.788;10.334;2023-07-13T07:21:41;25.55;66.07
28175;SHT30;59417;44.788;10.334;2023-07-13T07:24:07;25.59;65.86
28175;SHT30;59417;44.788;10.334;2023-07-13T07:26:34;25.78;66.08
28175;SHT30;59417;44.788;10.334;2023-07-13T07:28:59;25.84;65.49
28175;SHT30;59417;44.788;10.334;2023-07-13T07:31:25;25.65;66.51
28175;SHT30;59417;44.788;10.334;2023-07-13T07:33:51;25.49;65.78
28175;SHT30;59417;44.788;10.334;2023-07-13T07:36:16;25.45;66.22
28175;SHT30;59417;44.788;10.334;2023-07-13T07:38:43;25.17;67.10
28175;SHT30;59417;44.788;10.334;2023-07-13T07:41:09;25.03;67.40
28175;SHT30;59417;44.788;10.334;2023-07-13T07:43:35;24.91;67.83
28175;SHT30;59417;44.788;10.334;2023-07-13T07:46:02;25.11;67.08
28175;SHT30;59417;44.788;10.334;2023-07-13T07:48:28;25.17;67.14
28175;SHT30;59417;44.788;10.334;2023-07-13T07:50:54;25.48;66.73
28175;SHT30;59417;44.788;10.334;2023-07-13T07:53:19;25.35;66.94
28175;SHT30;59417;44.788;10.334;2023-07-13T07:55:45;25.24;67.07
28175;SHT30;59417;44.788;10.334;2023-07-13T07:58:11;25.07;67.80
28175;SHT30;59417;44.788;10.334;2023-07-13T08:00:37;25.08;68.10
28175;SHT30;59417;44.788;10.334;2023-07-13T08:03:02;25.41;66.75
28175;SHT30;59417;44.788;10.334;2023-07-13T08:05:28;25.31;67.43
28175;SHT30;59417;44.788;10.334;2023-07-13T08:07:55;25.20;67.95
28175;SHT30;59417;44.788;10.334;2023-07-13T08:10:21;25.07;68.85
28175;SHT30;59417;44.788;10.334;2023-07-13T08:12:46;24.96;69.00
28175;SHT30;59417;44.788;10.334;2023-07-13T08:15:16;24.84;69.73
28175;SHT30;59417;44.788;10.334;2023-07-13T08:17:42;24.91;68.94
28175;SHT30;59417;44.788;10.334;2023-07-13T08:20:08;24.90;68.64
28175;SHT30;59417;44.788;10.334;2023-07-13T08:22:35;24.91;68.71
28175;SHT30;59417;44.788;10.334;2023-07-13T08:25:02;24.97;67.73
28175;SHT30;59417;44.788;10.334;2023-07-13T08:27:28;25.27;66.85
28175;SHT30;59417;44.788;10.334;2023-07-13T08:29:54;25.34;66.55
28175;SHT30;59417;44.788;10.334;2023-07-13T08:32:22;25.48;67.28
28175;SHT30;59417;44.788;10.334;2023-07-13T08:34:48;25.30;67.66
28175;SHT30;59417;44.788;10.334;2023-07-13T08:37:14;25.16;68.66
28175;SHT30;59417;44.788;10.334;2023-07-13T08:39:40;24.99;68.42
28175;SHT30;59417;44.788;10.334;2023-07-13T08:42:32;24.67;70.80
28175;SHT30;59417;44.788;10.334;2023-07-13T08:45:52;24.67;71.77
28175;SHT30;59417;44.788;10.334;2023-07-13T08:48:19;24.77;70.55
28175;SHT30;59417;44.788;10.334;2023-07-13T08:51:01;24.83;69.66
28175;SHT30;59417;44.788;10.334;2023-07-13T08:53:47;24.69;70.48
28175;SHT30;59417;44.788;10.334;2023-07-13T08:56:20;24.70;70.45
28175;SHT30;59417;44.788;10.334;2023-07-13T08:58:50;24.87;70.87
28175;SHT30;59417;44.788;10.334;2023-07-13T09:04:28;24.96;70.51
28175;SHT30;59417;44.788;10.334;2023-07-13T09:09:55;24.87;70.63
28175;SHT30;59417;44.788;10.334;2023-07-13T09:15:21;25.06;69.43
28175;SHT30;59417;44.788;10.334;2023-07-13T09:17:49;25.16;69.05
28175;SHT30;59417;44.788;10.334;2023-07-13T09:20:26;25.11;69.61
28175;SHT30;59417;44.788;10.334;2023-07-13T09:22:55;25.06;70.09
28175;SHT30;59417;44.788;10.334;2023-07-13T09:25:32;25.06;70.65
28175;SHT30;59417;44.788;10.334;2023-07-13T09:30:51;25.35;70.31
28175;SHT30;59417;44.788;10.334;2023-07-13T09:33:20;25.48;70.39
28175;SHT30;59417;44.788;10.334;2023-07-13T09:35:45;25.64;69.83
28175;SHT30;59417;44.788;10.334;2023-07-13T09:38:15;25.62;68.21
28175;SHT30;59417;44.788;10.334;2023-07-13T09:43:29;25.47;67.75
28175;SHT30;59417;44.788;10.334;2023-07-13T09:45:55;25.47;67.70
28175;SHT30;59417;44.788;10.334;2023-07-13T09:48:21;25.58;67.12
28175;SHT30;59417;44.788;10.334;2023-07-13T09:50:47;25.62;68.34
28175;SHT30;59417;44.788;10.334;2023-07-13T09:53:19;25.98;67.03
28175;SHT30;59417;44.788;10.334;2023-07-13T09:55:46;26.33;64.68
28175;SHT30;59417;44.788;10.334;2023-07-13T09:58:24;26.53;64.69
28175;SHT30;59417;44.788;10.334;2023-07-13T10:00:59;26.74;64.66
28175;SHT30;59417;44.788;10.334;2023-07-13T10:03:30;26.97;63.48
28175;SHT30;59417;44.788;10.334;2023-07-13T10:06:14;27.11;62.46
28175;SHT30;59417;44.788;10.334;2023-07-13T10:08:40;27.32;60.62
28175;SHT30;59417;44.788;10.334;2023-07-13T10:13:42;27.16;62.76
28175;SHT30;59417;44.788;10.334;2023-07-13T10:16:09;27.32;62.84
28175;SHT30;59417;44.788;10.334;2023-07-13T10:18:45;27.53;62.40
28175;SHT30;59417;44.788;10.334;2023-07-13T10:21:23;27.80;58.93
28175;SHT30;59417;44.788;10.334;2023-07-13T10:23:54;27.85;59.66
28175;SHT30;59417;44.788;10.334;2023-07-13T10:26:27;27.93;57.71
28175;SHT30;59417;44.788;10.334;2023-07-13T10:28:57;27.94;57.86
28175;SHT30;59417;44.788;10.334;2023-07-13T10:31:25;28.03;59.22
28175;SHT30;59417;44.788;10.334;2023-07-13T10:33:51;28.09;59.85
28175;SHT30;59417;44.788;10.334;2023-07-13T10:39:04;28.27;59.75
28175;SHT30;59417;44.788;10.334;2023-07-13T10:41:32;28.44;58.23
28175;SHT30;59417;44.788;10.334;2023-07-13T10:43:59;28.55;58.14
28175;SHT30;59417;44.788;10.334;2023-07-13T10:46:27;28.51;58.94
28175;SHT30;59417;44.788;10.334;2023-07-13T10:49:00;28.54;58.43
28175;SHT30;59417;44.788;10.334;2023-07-13T10:51:54;28.65;59.60
28175;SHT30;59417;44.788;10.334;2023-07-13T10:57:15;28.82;59.48
28175;SHT30;59417;44.788;10.334;2023-07-13T10:59:46;28.92;58.13
28175;SHT30;59417;44.788;10.334;2023-07-13T11:02:25;28.79;59.40
28175;SHT30;59417;44.788;10.334;2023-07-13T11:04:53;28.65;59.17
28175;SHT30;59417;44.788;10.334;2023-07-13T11:07:23;28.68;58.83
28175;SHT30;59417;44.788;10.334;2023-07-13T11:09:52;28.77;59.35
28175;SHT30;59417;44.788;10.334;2023-07-13T11:25:38;29.67;57.01
28175;SHT30;59417;44.788;10.334;2023-07-13T11:30:37;29.91;56.61
28175;SHT30;59417;44.788;10.334;2023-07-13T11:33:27;30.00;56.30
28175;SHT30;59417;44.788;10.334;2023-07-13T11:38:30;29.76;57.34
28175;SHT30;59417;44.788;10.334;2023-07-13T11:41:01;29.98;58.11
28175;SHT30;59417;44.788;10.334;2023-07-13T11:43:29;30.25;55.96
28175;SHT30;59417;44.788;10.334;2023-07-13T11:45:55;30.47;56.21
28175;SHT30;59417;44.788;10.334;2023-07-13T11:48:25;30.49;54.68
28175;SHT30;59417;44.788;10.334;2023-07-13T11:51:04;30.58;55.39
28175;SHT30;59417;44.788;10.334;2023-07-13T11:53:50;30.48;54.11
28175;SHT30;59417;44.788;10.334;2023-07-13T11:56:18;30.61;54.72
28175;SHT30;59417;44.788;10.334;2023-07-13T11:58:47;30.71;54.00
28175;SHT30;59417;44.788;10.334;2023-07-13T12:01:26;30.82;54.46
28175;SHT30;59417;44.788;10.334;2023-07-13T12:03:53;30.96;54.62
28175;SHT30;59417;44.788;10.334;2023-07-13T12:06:31;31.12;54.18
28175;SHT30;59417;44.788;10.334;2023-07-13T12:09:03;31.26;53.47
28175;SHT30;59417;44.788;10.334;2023-07-13T12:11:35;31.20;53.65
28175;SHT30;59417;44.788;10.334;2023-07-13T12:14:03;31.24;53.19
28175;SHT30;59417;44.788;10.334;2023-07-13T12:16:34;31.09;52.93
28175;SHT30;59417;44.788;10.334;2023-07-13T12:19:18;31.10;53.19
28175;SHT30;59417;44.788;10.334;2023-07-13T12:21:45;31.20;53.92
28175;SHT30;59417;44.788;10.334;2023-07-13T12:24:20;31.31;53.91
28175;SHT30;59417;44.788;10.334;2023-07-13T12:27:03;31.50;53.48
28175;SHT30;59417;44.788;10.334;2023-07-13T12:29:32;31.64;52.40
28175;SHT30;59417;44.788;10.334;2023-07-13T12:31:58;31.77;52.49
28175;SHT30;59417;44.788;10.334;2023-07-13T12:34:25;31.71;52.33
28175;SHT30;59417;44.788;10.334;2023-07-13T12:36:52;31.60;52.26
28175;SHT30;59417;44.788;10.334;2023-07-13T12:41:48;31.60;52.50
28175;SHT30;59417;44.788;10.334;2023-07-13T12:44:16;31.76;52.93
28175;SHT30;59417;44.788;10.334;2023-07-13T12:46:55;31.89;54.25
28175;SHT30;59417;44.788;10.334;2023-07-13T12:49:29;31.92;54.01
28175;SHT30;59417;44.788;10.334;2023-07-13T12:51:57;32.08;54.23
28175;SHT30;59417;44.788;10.334;2023-07-13T12:54:25;32.22;53.62
28175;SHT30;59417;44.788;10.334;2023-07-13T12:56:53;32.29;52.28
28175;SHT30;59417;44.788;10.334;2023-07-13T12:59:21;32.33;52.72
28175;SHT30;59417;44.788;10.334;2023-07-13T13:01:53;32.45;53.52
28175;SHT30;59417;44.788;10.334;2023-07-13T13:04:20;32.43;52.68
28175;SHT30;59417;44.788;10.334;2023-07-13T13:06:48;32.42;52.21
28175;SHT30;59417;44.788;10.334;2023-07-13T13:09:16;32.14;51.54
28175;SHT30;59417;44.788;10.334;2023-07-13T13:11:44;32.15;52.01
28175;SHT30;59417;44.788;10.334;2023-07-13T13:14:10;32.18;53.09
28175;SHT30;59417;44.788;10.334;2023-07-13T13:16:46;32.25;52.32
28175;SHT30;59417;44.788;10.334;2023-07-13T13:19:20;32.27;52.06
28175;SHT30;59417;44.788;10.334;2023-07-13T13:21:49;32.11;52.27
28175;SHT30;59417;44.788;10.334;2023-07-13T13:24:24;32.21;52.43
28175;SHT30;59417;44.788;10.334;2023-07-13T13:26:52;32.32;51.97
28175;SHT30;59417;44.788;10.334;2023-07-13T13:29:20;32.39;51.78
28175;SHT30;59417;44.788;10.334;2023-07-13T13:31:48;32.35;51.84
28175;SHT30;59417;44.788;10.334;2023-07-13T13:34:16;32.42;52.11
28175;SHT30;59417;44.788;10.334;2023-07-13T13:36:43;32.48;51.49
28175;SHT30;59417;44.788;10.334;2023-07-13T13:39:34;32.33;51.89
28175;SHT30;59417;44.788;10.334;2023-07-13T13:42:00;32.29;52.38
28175;SHT30;59417;44.788;10.334;2023-07-13T13:44:29;32.36;51.96
28175;SHT30;59417;44.788;10.334;2023-07-13T13:46:56;32.33;51.77
28175;SHT30;59417;44.788;10.334;2023-07-13T13:49:26;32.21;53.08
28175;SHT30;59417;44.788;10.334;2023-07-13T13:51:53;32.04;52.27
28175;SHT30;59417;44.788;10.334;2023-07-13T13:54:21;31.71;52.90
28175;SHT30;59417;44.788;10.334;2023-07-13T13:56:49;31.63;53.85
28175;SHT30;59417;44.788;10.334;2023-07-13T13:59:15;31.63;53.68
28175;SHT30;59417;44.788;10.334;2023-07-13T14:01:43;31.60;53.49
28175;SHT30;59417;44.788;10.334;2023-07-13T14:04:27;31.56;53.46
28175;SHT30;59417;44.788;10.334;2023-07-13T14:06:53;31.51;53.28
28175;SHT30;59417;44.788;10.334;2023-07-13T14:09:20;31.47;53.16
28175;SHT30;59417;44.788;10.334;2023-07-13T14:11:47;31.38;53.65
28175;SHT30;59417;44.788;10.334;2023-07-13T14:14:20;31.36;54.28
28175;SHT30;59417;44.788;10.334;2023-07-13T14:16:46;31.38;53.58
28175;SHT30;59417;44.788;10.334;2023-07-13T14:19:20;31.66;54.13
28175;SHT30;59417;44.788;10.334;2023-07-13T14:21:46;31.84;53.45
28175;SHT30;59417;44.788;10.334;2023-07-13T14:24:16;32.08;53.59
28175;SHT30;59417;44.788;10.334;2023-07-13T14:26:43;32.18;53.60
28175;SHT30;59417;44.788;10.334;2023-07-13T14:29:17;32.12;53.50
28175;SHT30;59417;44.788;10.334;2023-07-13T14:31:44;32.15;53.44
28175;SHT30;59417;44.788;10.334;2023-07-13T14:34:11;32.14;54.03
28175;SHT30;59417;44.788;10.334;2023-07-13T14:36:43;31.97;53.84
28175;SHT30;59417;44.788;10.334;2023-07-13T14:39:22;31.71;54.55
28175;SHT30;59417;44.788;10.334;2023-07-13T14:41:50;31.61;54.22
28175;SHT30;59417;44.788;10.334;2023-07-13T14:44:19;31.46;55.48
28175;SHT30;59417;44.788;10.334;2023-07-13T14:46:46;31.37;55.33
28175;SHT30;59417;44.788;10.334;2023-07-13T14:49:23;31.29;55.48
28175;SHT30;59417;44.788;10.334;2023-07-13T14:51:50;31.24;55.72
28175;SHT30;59417;44.788;10.334;2023-07-13T14:54:16;31.29;55.51
28175;SHT30;59417;44.788;10.334;2023-07-13T14:56:43;31.20;56.95
28175;SHT30;59417;44.788;10.334;2023-07-13T14:59:10;31.26;56.43
28175;SHT30;59417;44.788;10.334;2023-07-13T15:01:37;31.41;54.57
28175;SHT30;59417;44.788;10.334;2023-07-13T15:04:04;31.47;54.35
28175;SHT30;59417;44.788;10.334;2023-07-13T15:06:55;31.71;54.38
28175;SHT30;59417;44.788;10.334;2023-07-13T15:09:21;31.80;53.82
28175;SHT30;59417;44.788;10.334;2023-07-13T15:11:50;31.73;52.99
28175;SHT30;59417;44.788;10.334;2023-07-13T15:14:16;31.63;53.63
28175;SHT30;59417;44.788;10.334;2023-07-13T15:16:43;31.73;53.35
28175;SHT30;59417;44.788;10.334;2023-07-13T15:19:10;31.76;53.47
28175;SHT30;59417;44.788;10.334;2023-07-13T15:21:37;31.70;52.64
28175;SHT30;59417;44.788;10.334;2023-07-13T15:24:04;31.78;53.82
28175;SHT30;59417;44.788;10.334;2023-07-13T15:26:34;31.85;53.53
28175;SHT30;59417;44.788;10.334;2023-07-13T15:28:59;31.78;53.38
28175;SHT30;59417;44.788;10.334;2023-07-13T15:31:27;31.56;53.01
28175;SHT30;59417;44.788;10.334;2023-07-13T15:33:56;31.34;53.85
28175;SHT30;59417;44.788;10.334;2023-07-13T15:36:23;31.22;51.99
28175;SHT30;59417;44.788;10.334;2023-07-13T15:38:52;31.12;53.33
28175;SHT30;59417;44.788;10.334;2023-07-13T15:41:27;31.19;52.25
28175;SHT30;59417;44.788;10.334;2023-07-13T15:43:56;31.17;52.40
28175;SHT30;59417;44.788;10.334;2023-07-13T15:46:26;31.02;53.40
28175;SHT30;59417;44.788;10.334;2023-07-13T15:48:54;31.19;54.67
28175;SHT30;59417;44.788;10.334;2023-07-13T15:51:28;31.10;52.84
28175;SHT30;59417;44.788;10.334;2023-07-13T15:53:58;31.23;53.44
28175;SHT30;59417;44.788;10.334;2023-07-13T15:56:38;31.34;55.19
28175;SHT30;59417;44.788;10.334;2023-07-13T15:59:10;31.33;53.40
28175;SHT30;59417;44.788;10.334;2023-07-13T16:01:40;31.24;53.49
28175;SHT30;59417;44.788;10.334;2023-07-13T16:04:08;31.13;55.28
28175;SHT30;59417;44.788;10.334;2023-07-13T16:06:36;31.31;54.87
28175;SHT30;59417;44.788;10.334;2023-07-13T16:09:06;31.41;54.73
28175;SHT30;59417;44.788;10.334;2023-07-13T16:11:38;31.53;53.08